Time;durP1;ratioP1;P1;durP2;ratioP2;P2;SDS_P1;SDS_P2;PMS_P1;PMS_P2;Temp;Humidity;BMP_temperature;BMP_pressure;BME280_temperature;BME280_humidity;BME280_pressure;Samples;Min_cycle;Max_cycle;Signal;HPM_P1;HPM_P2
2024/04/23 00:02:09;;;;;;;7.40;3.63;;;;;;;2.47;100.00;68666.13;5525861;26;20030;-56
2024/04/23 00:04:37;;;;;;;7.78;3.70;;;;;;;2.51;100.00;68668.19;5523560;26;19997;-57
2024/04/23 00:07:08;;;;;;;8.68;3.83;;;;;;;2.48;100.00;68662.13;5523348;26;20452;-58
2024/04/23 00:09:35;;;;;;;11.90;4.20;;;;;;;2.34;100.00;68645.91;5526078;26;20074;-56
2024/04/23 00:12:06;;;;;;;9.45;4.05;;;;;;;2.36;100.00;68648.78;5525824;26;20448;-55
2024/04/23 00:14:34;;;;;;;8.13;4.10;;;;;;;2.35;100.00;68647.06;5523726;25;19993;-56
2024/04/23 00:17:06;;;;;;;10.00;4.25;;;;;;;2.41;100.00;68651.44;5523783;26;19994;-56
2024/04/23 00:19:36;;;;;;;8.52;4.13;;;;;;;2.35;100.00;68644.47;5525799;26;20009;-56
2024/04/23 00:22:07;;;;;;;8.48;4.10;;;;;;;2.28;100.00;68638.94;5525967;26;19997;-56
2024/04/23 00:24:35;;;;;;;6.93;3.72;;;;;;;2.26;100.00;68636.63;5526395;25;20005;-55
2024/04/23 00:27:05;;;;;;;7.70;4.20;;;;;;;2.30;100.00;68644.41;5525068;26;20464;-55
2024/04/23 00:29:33;;;;;;;9.07;4.18;;;;;;;2.34;100.00;68653.63;5523373;26;20017;-57
2024/04/23 00:32:03;;;;;;;9.48;5.20;;;;;;;2.29;100.00;68640.09;5523982;25;20005;-56
2024/04/23 00:34:31;;;;;;;8.68;4.25;;;;;;;2.34;100.00;68646.47;5525631;26;19993;-55
2024/04/23 00:37:07;;;;;;;9.30;5.10;;;;;;;2.29;100.00;68640.69;5523288;26;20005;-57
2024/04/23 00:39:35;;;;;;;8.02;4.18;;;;;;;2.28;100.00;68634.38;5523003;26;20486;-48
2024/04/23 00:42:05;;;;;;;7.22;3.90;;;;;;;2.28;100.00;68633.81;5524944;26;20008;-49
2024/04/23 00:44:33;;;;;;;8.98;4.15;;;;;;;2.28;100.00;68638.94;5524644;25;20444;-52
2024/04/23 00:47:04;;;;;;;9.60;4.20;;;;;;;2.28;100.00;68638.94;5524945;26;20070;-48
2024/04/23 00:49:32;;;;;;;8.40;4.50;;;;;;;2.28;100.00;68642.09;5524989;26;20368;-47
2024/04/23 00:52:03;;;;;;;10.85;4.38;;;;;;;2.27;100.00;68635.78;5524836;26;19997;-46
2024/04/23 00:54:33;;;;;;;9.60;4.18;;;;;;;2.25;100.00;68633.47;5524768;26;19989;-49
2024/04/23 00:57:05;;;;;;;8.38;4.32;;;;;;;2.27;100.00;68646.09;5524180;26;20001;-48
2024/04/23 00:59:33;;;;;;;9.43;4.35;;;;;;;2.23;100.00;68631.16;5522181;26;20016;-46
2024/04/23 01:02:06;;;;;;;8.77;4.13;;;;;;;2.23;100.00;68633.16;5520193;26;20008;-47
2024/04/23 01:04:34;;;;;;;8.57;4.28;;;;;;;2.26;100.00;68641.78;5524522;26;20009;-48
2024/04/23 01:07:04;;;;;;;7.75;4.05;;;;;;;2.22;100.00;68631.97;5524812;26;19997;-47
2024/04/23 01:09:34;;;;;;;9.55;4.72;;;;;;;2.19;100.00;68632.22;5524730;25;20441;-48
2024/04/23 01:12:06;;;;;;;7.88;4.20;;;;;;;2.20;100.00;68630.81;5524327;25;20435;-49
2024/04/23 01:14:40;;;;;;;10.05;4.30;;;;;;;2.13;100.00;68622.16;5524641;26;20449;-49
2024/04/23 01:17:11;;;;;;;11.60;5.30;;;;;;;2.08;100.00;68616.91;5524297;26;20008;-48
2024/04/23 01:19:44;;;;;;;8.73;4.73;;;;;;;2.01;100.00;68608.81;5524517;26;20001;-49
2024/04/23 01:22:28;;;;;;;13.65;4.80;;;;;;;1.99;100.00;68606.47;5524554;26;20429;-47
2024/04/23 01:25:08;;;;;;;9.32;5.15;;;;;;;1.89;100.00;68598.03;5524421;26;20409;-46
2024/04/23 01:27:41;;;;;;;8.68;4.22;;;;;;;1.95;100.00;68601.84;5524096;25;20464;-47
2024/04/23 01:30:11;;;;;;;8.77;4.40;;;;;;;1.92;100.00;68593.81;5524362;26;20004;-49
2024/04/23 01:32:44;;;;;;;8.40;4.55;;;;;;;1.94;100.00;68600.69;5524030;26;20001;-46
2024/04/23 01:35:13;;;;;;;8.02;4.28;;;;;;;1.95;100.00;68602.44;5523894;26;20128;-48
2024/04/23 01:37:46;;;;;;;8.43;4.75;;;;;;;1.94;100.00;68603.84;5520712;25;20043;-48
2024/04/23 01:40:15;;;;;;;11.50;4.80;;;;;;;1.88;100.00;68591.16;5520535;26;20035;-47
2024/04/23 01:42:49;;;;;;;7.90;4.35;;;;;;;1.88;100.00;68596.88;5523959;26;20069;-47
2024/04/23 01:45:17;;;;;;;8.60;4.72;;;;;;;1.84;100.00;68592.84;5521476;26;19993;-47
2024/04/23 01:47:49;;;;;;;8.82;4.57;;;;;;;1.85;100.00;68594.00;5520086;26;20073;-49
2024/04/23 01:50:17;;;;;;;10.25;5.22;;;;;;;1.86;100.00;68590.00;5523030;25;20463;-48
2024/04/23 01:52:48;;;;;;;9.93;4.63;;;;;;;1.88;100.00;68593.75;5523998;26;20008;-47
2024/04/23 01:55:18;;;;;;;9.98;5.20;;;;;;;1.89;100.00;68594.91;5522520;26;20023;-46
2024/04/23 01:57:51;;;;;;;10.05;5.50;;;;;;;1.87;100.00;68595.75;5521549;26;20788;-48
2024/04/23 02:00:22;;;;;;;10.27;5.15;;;;;;;1.87;100.00;68593.16;5519100;26;19997;-46
2024/04/23 02:02:56;;;;;;;9.55;4.90;;;;;;;1.86;100.00;68595.16;5523256;26;20033;-47
2024/04/23 02:05:26;;;;;;;8.35;4.82;;;;;;;1.85;100.00;68594.00;5523772;26;19993;-46
2024/04/23 02:07:58;;;;;;;11.20;5.03;;;;;;;1.76;100.00;68580.41;5523127;26;20011;-48
2024/04/23 02:10:26;;;;;;;;;;;;;;;1.77;100.00;68584.13;5524407;26;19997;-45
2024/04/23 02:13:00;;;;;;;9.45;4.93;;;;;;;1.72;100.00;68573.78;5491146;26;19931;-46
2024/04/23 02:15:27;;;;;;;10.68;5.22;;;;;;;1.68;100.00;68574.31;5523164;26;20012;-48
2024/04/23 02:17:58;;;;;;;9.52;5.18;;;;;;;1.68;100.00;68569.16;5523149;26;20455;-49
2024/04/23 02:20:25;;;;;;;11.52;5.63;;;;;;;1.67;100.00;68575.72;5520390;25;19998;-47
2024/04/23 02:22:56;;;;;;;10.40;5.30;;;;;;;1.63;100.00;68566.50;5518610;26;20006;-46
2024/04/23 02:25:25;;;;;;;10.30;5.32;;;;;;;1.60;100.00;68560.47;5521419;26;20005;-44
2024/04/23 02:27:59;;;;;;;10.95;5.53;;;;;;;1.62;100.00;68565.38;5523203;25;20017;-47
2024/04/23 02:30:26;;;;;;;9.63;5.88;;;;;;;1.68;100.00;68574.88;5523544;26;20466;-47
2024/04/23 02:32:57;;;;;;;9.05;5.10;;;;;;;1.74;100.00;68580.66;5522737;26;19997;-45
2024/04/23 02:35:25;;;;;;;10.85;5.55;;;;;;;1.71;100.00;68577.78;5522914;26;20398;-48
2024/04/23 02:37:56;;;;;;;10.07;5.28;;;;;;;1.67;100.00;68571.13;5520051;26;20278;-47
2024/04/23 02:40:24;;;;;;;11.48;6.43;;;;;;;1.57;100.00;68562.13;5518689;26;20069;-49
2024/04/23 02:42:54;;;;;;;10.15;6.03;;;;;;;1.55;100.00;68562.38;5522025;26;20013;-46
2024/04/23 02:45:25;;;;;;;10.35;6.03;;;;;;;1.52;100.00;68556.91;5519071;26;20496;-46
2024/04/23 02:48:00;;;;;;;12.30;6.03;;;;;;;1.49;100.00;68552.88;5519012;25;19993;-47
2024/04/23 02:50:28;;;;;;;10.40;5.63;;;;;;;1.50;100.00;68552.03;5522012;26;20457;-47
2024/04/23 02:52:59;;;;;;;11.07;5.93;;;;;;;1.49;100.00;68553.44;5522584;26;20001;-47
2024/04/23 02:55:27;;;;;;;10.88;5.82;;;;;;;1.46;100.00;68546.81;5522315;26;19997;-55
2024/04/23 02:57:58;;;;;;;13.98;6.50;;;;;;;1.42;100.00;68545.34;5520292;26;19997;-55
2024/04/23 03:00:31;;;;;;;10.30;5.85;;;;;;;1.44;100.00;68549.66;5522165;26;20005;-54
2024/04/23 03:02:58;;;;;;;10.18;6.30;;;;;;;1.41;100.00;68541.03;5521602;26;20002;-55
2024/04/23 03:05:31;;;;;;;10.73;6.13;;;;;;;1.41;100.00;68543.59;5519610;25;20001;-55
2024/04/23 03:07:59;;;;;;;10.60;6.38;;;;;;;1.41;100.00;68541.03;5523492;26;20343;-55
2024/04/23 03:10:29;;;;;;;11.02;6.85;;;;;;;1.38;100.00;68538.13;5524095;26;19997;-56
2024/04/23 03:13:00;;;;;;;11.05;6.32;;;;;;;1.46;100.00;68549.97;5524701;26;20524;-53
2024/04/23 03:15:33;;;;;;;11.68;6.72;;;;;;;1.35;100.00;68532.66;5525663;25;20008;-55
2024/04/23 03:18:01;;;;;;;11.63;6.07;;;;;;;1.36;100.00;68535.81;5494183;26;20005;-56
2024/04/23 03:20:32;;;;;;;12.65;7.10;;;;;;;1.30;100.00;68528.88;5526909;25;20001;-56
2024/04/23 03:22:59;;;;;;;12.73;6.90;;;;;;;1.29;100.00;68527.72;5526751;26;20005;-53
2024/04/23 03:25:33;;;;;;;11.65;7.07;;;;;;;1.21;100.00;68516.44;5526857;26;20042;-54
2024/04/23 03:28:02;;;;;;;13.00;6.90;;;;;;;1.21;100.00;68513.31;5527096;26;20078;-58
2024/04/23 03:30:35;;;;;;;13.57;7.10;;;;;;;1.13;100.00;68507.78;5523024;26;20636;-56
2024/04/23 03:33:03;;;;;;;11.43;7.00;;;;;;;1.12;100.00;68506.03;5492328;26;19994;-55
2024/04/23 03:35:36;;;;;;;13.60;7.82;;;;;;;1.14;100.00;68508.91;5526426;26;20448;-56
2024/04/23 03:38:08;;;;;;;14.43;7.45;;;;;;;1.17;100.00;68514.38;5526642;25;20357;-57
2024/04/23 03:40:38;;;;;;;12.63;7.47;;;;;;;1.17;100.00;68514.97;5526689;26;20452;-56
2024/04/23 03:43:06;;;;;;;12.02;6.90;;;;;;;1.18;100.00;68518.69;5526710;26;20012;-55
2024/04/23 03:45:39;;;;;;;12.80;7.30;;;;;;;1.15;100.00;68514.66;5525276;26;20380;-56
2024/04/23 03:48:10;;;;;;;13.32;7.03;;;;;;;1.15;100.00;68510.06;5523732;26;20008;-54
2024/04/23 03:50:38;;;;;;;12.77;7.20;;;;;;;1.18;100.00;68515.53;5525389;26;19997;-57
2024/04/23 03:53:08;;;;;;;12.27;7.25;;;;;;;1.11;100.00;68510.00;5525825;26;20479;-56
2024/04/23 03:55:36;;;;;;;14.55;7.50;;;;;;;1.12;100.00;68509.19;5526262;26;20005;-55
2024/04/23 03:58:08;;;;;;;12.85;7.35;;;;;;;1.09;100.00;68510.84;5525161;26;20046;-56
2024/04/23 04:00:38;;;;;;;13.15;7.53;;;;;;;1.07;100.00;68502.81;5523963;26;19997;-55
2024/04/23 04:06:07;;;;;;;12.93;7.05;;;;;;;1.13;100.00;68512.31;5462947;26;20013;-55
2024/04/23 04:08:39;;;;;;;13.00;7.40;;;;;;;1.18;100.00;68512.97;5526155;26;20005;-55
2024/04/23 04:11:10;;;;;;;13.82;7.97;;;;;;;1.08;100.00;68501.97;5526219;26;19998;-54
2024/04/23 04:13:41;;;;;;;11.40;6.85;;;;;;;1.04;100.00;68497.34;5526072;26;20013;-54
2024/04/23 04:16:12;;;;;;;12.82;6.88;;;;;;;0.96;100.00;68491.22;5525969;26;19993;-56
2024/04/23 04:18:42;;;;;;;12.48;7.60;;;;;;;0.94;100.00;68491.50;5525374;26;19993;-55
2024/04/23 04:21:29;;;;;;;14.77;8.07;;;;;;;0.90;100.00;68488.84;5528341;26;20008;-54
2024/04/23 04:23:59;;;;;;;12.82;7.93;;;;;;;0.88;100.00;68479.38;5526071;26;20065;-55
2024/04/23 04:26:27;;;;;;;14.23;7.65;;;;;;;0.88;100.00;68486.53;5525910;26;20033;-54
2024/04/23 04:28:57;;;;;;;12.20;7.53;;;;;;;0.82;100.00;68477.59;5525768;26;20105;-57
2024/04/23 04:31:27;;;;;;;12.85;8.05;;;;;;;0.84;100.00;68474.75;5525645;25;20046;-56
2024/04/23 04:33:58;;;;;;;13.68;7.95;;;;;;;0.85;100.00;68481.06;5525670;26;20433;-53
2024/04/23 04:36:25;;;;;;;14.43;8.48;;;;;;;0.83;100.00;68481.91;5525590;26;20335;-55
2024/04/23 04:38:56;;;;;;;13.93;8.27;;;;;;;0.82;100.00;68480.72;5526076;26;20574;-56
2024/04/23 04:41:23;;;;;;;14.13;8.52;;;;;;;0.80;100.00;68472.69;5525577;26;20001;-55
2024/04/23 04:43:58;;;;;;;14.77;8.93;;;;;;;0.79;100.00;68477.25;5525736;26;20424;-57
2024/04/23 04:46:32;;;;;;;13.48;8.80;;;;;;;0.77;100.00;68469.81;5525750;26;20451;-55
2024/04/23 04:49:03;;;;;;;14.23;8.80;;;;;;;0.81;100.00;68476.44;5523590;26;20090;-56
2024/04/23 04:51:30;;;;;;;16.67;9.15;;;;;;;0.80;100.00;68470.69;5521674;26;20005;-53
2024/04/23 04:54:01;;;;;;;14.73;8.65;;;;;;;0.79;100.00;68471.53;5521774;26;20054;-56
2024/04/23 04:56:29;;;;;;;15.57;9.55;;;;;;;0.81;100.00;68471.28;5522999;26;20042;-56
2024/04/23 04:58:59;;;;;;;14.98;8.68;;;;;;;0.86;100.00;68477.09;5523807;26;20004;-55
2024/04/23 05:01:27;;;;;;;14.30;9.68;;;;;;;0.86;100.00;68479.06;5492415;26;19997;-51
2024/04/23 05:04:00;;;;;;;14.77;9.38;;;;;;;0.84;100.00;68480.47;5525782;26;20012;-53
2024/04/23 05:06:28;;;;;;;16.20;9.60;;;;;;;0.92;100.00;68486.03;5525224;26;20012;-55
2024/04/23 05:08:58;;;;;;;14.68;9.60;;;;;;;0.87;100.00;68478.22;5524840;26;20065;-55
2024/04/23 05:11:26;;;;;;;14.88;9.55;;;;;;;0.93;100.00;68485.19;5525223;26;20013;-55
2024/04/23 05:13:57;;;;;;;14.13;8.98;;;;;;;0.94;100.00;68488.31;5522751;26;20461;-56
2024/04/23 05:16:24;;;;;;;15.88;9.07;;;;;;;0.93;100.00;68487.75;5489332;26;20341;-55
2024/04/23 05:18:55;;;;;;;17.70;9.80;;;;;;;0.94;100.00;68490.91;5522757;25;20025;-54
2024/04/23 05:21:25;;;;;;;15.95;9.95;;;;;;;0.94;100.00;68490.91;5521852;26;19998;-54
2024/04/23 05:23:59;;;;;;;17.30;10.07;;;;;;;0.92;100.00;68488.59;5525038;26;20013;-55
2024/04/23 05:26:26;;;;;;;16.17;10.55;;;;;;;0.91;100.00;68482.84;5524816;26;19997;-54
2024/04/23 05:28:57;;;;;;;17.27;10.30;;;;;;;0.94;100.00;68494.06;5521689;26;19994;-55
2024/04/23 05:34:14;;;;;;;16.27;11.15;;;;;;;0.98;100.00;68498.09;5524644;26;20330;-55
2024/04/23 05:36:47;;;;;;;14.57;9.70;;;;;;;1.00;100.00;68495.28;5522589;26;19989;-54
2024/04/23 05:39:18;;;;;;;17.70;11.02;;;;;;;1.06;100.00;68504.78;5521386;26;20751;-55
2024/04/23 05:41:48;;;;;;;20.08;11.63;;;;;;;1.10;100.00;68506.84;5524376;26;20003;-55
2024/04/23 05:44:18;;;;;;;18.38;10.60;;;;;;;1.11;100.00;68508.00;5524609;26;20342;-55
2024/04/23 05:46:52;;;;;;;17.15;11.30;;;;;;;1.23;100.00;68520.75;5524880;26;19993;-54
2024/04/23 05:50:00;;;;;;;16.75;10.38;;;;;;;1.30;100.00;68528.88;5522697;26;19998;-56
2024/04/23 05:53:08;;;;;;;17.23;10.90;;;;;;;1.40;100.00;68539.88;5520847;26;20001;-55
2024/04/23 05:55:40;;;;;;;20.38;11.32;;;;;;;1.49;100.00;68552.88;5523351;26;20001;-55
2024/04/23 05:58:15;;;;;;;16.98;11.05;;;;;;;1.51;100.00;68557.75;5524840;26;20523;-56
2024/04/23 06:00:43;;;;;;;17.02;10.93;;;;;;;1.56;100.00;68560.41;5524668;26;19993;-56
2024/04/23 06:03:13;;;;;;;16.65;11.02;;;;;;;1.63;100.00;68563.38;5524165;26;20089;-56
2024/04/23 06:05:41;;;;;;;17.33;10.85;;;;;;;1.69;100.00;68578.00;5491588;26;19998;-56
2024/04/23 06:08:12;;;;;;;18.20;12.50;;;;;;;1.75;100.00;68577.25;5524242;26;20436;-54
2024/04/23 06:10:42;;;;;;;18.80;11.82;;;;;;;1.86;100.00;68594.56;5524355;26;19993;-54
2024/04/23 06:13:13;;;;;;;17.88;11.27;;;;;;;1.99;100.00;68606.47;5524558;26;19998;-55
2024/04/23 06:15:41;;;;;;;17.92;11.07;;;;;;;2.07;100.00;68615.19;5522470;26;20013;-55
2024/04/23 06:18:11;;;;;;;18.23;11.32;;;;;;;2.16;100.00;68626.19;5522002;26;20068;-54
2024/04/23 06:20:39;;;;;;;17.75;11.98;;;;;;;2.27;100.00;68638.34;5520065;26;20029;-56
2024/04/23 06:23:09;;;;;;;18.75;12.38;;;;;;;2.40;100.00;68650.28;5522882;26;20002;-55
2024/04/23 06:25:37;;;;;;;20.05;12.23;;;;;;;2.58;100.00;68675.13;5491222;26;20335;-57
2024/04/23 06:28:12;;;;;;;18.48;12.07;;;;;;;2.65;100.00;68683.25;5523871;26;20067;-54
2024/04/23 06:30:39;;;;;;;18.73;12.63;;;;;;;2.69;100.00;68680.75;5491344;26;19997;-54
2024/04/23 06:33:10;;;;;;;18.08;12.60;;;;;;;2.81;100.00;68694.09;5523871;26;20037;-55
2024/04/23 06:35:38;;;;;;;18.05;11.43;;;;;;;2.92;100.00;68710.81;5523915;26;20030;-54
2024/04/23 06:38:08;;;;;;;17.50;11.52;;;;;;;3.04;100.00;68722.75;5523964;26;19994;-56
2024/04/23 06:40:36;;;;;;;16.60;11.35;;;;;;;3.18;100.00;68737.84;5523783;26;20001;-57
2024/04/23 06:43:07;;;;;;;19.50;11.63;;;;;;;3.32;100.00;68756.66;5526606;26;20001;-56
2024/04/23 06:45:38;;;;;;;16.13;11.40;;;;;;;3.50;100.00;68776.94;5527028;26;19998;-55
2024/04/23 06:48:13;;;;;;;17.45;11.05;;;;;;;3.67;100.00;68796.09;5524507;26;20009;-56
2024/04/23 06:50:41;;;;;;;16.92;11.57;;;;;;;3.83;100.00;68811.53;5523007;26;19997;-57
2024/04/23 06:53:12;;;;;;;18.58;11.35;;;;;;;3.94;100.00;68823.13;5523865;25;20009;-56
2024/04/23 06:55:40;;;;;;;15.73;11.05;;;;;;;4.06;100.00;68839.63;5525473;26;19998;-56
2024/04/23 06:58:10;;;;;;;16.95;11.30;;;;;;;4.21;100.00;68857.06;5527074;26;20352;-56
2024/04/23 07:00:40;;;;;;;16.42;10.88;;;;;;;4.37;100.00;68869.88;5494167;26;20025;-56
2024/04/23 07:03:11;;;;;;;17.73;11.05;;;;;;;4.47;100.00;68886.09;5524020;26;19997;-56
2024/04/23 07:05:38;;;;;;;17.92;10.88;;;;;;;4.60;100.00;68894.88;5524669;26;20007;-57
2024/04/23 07:08:09;;;;;;;15.95;10.77;;;;;;;4.74;100.00;68914.28;5526957;26;20073;-55
2024/04/23 07:10:37;;;;;;;14.60;10.75;;;;;;;4.98;100.00;68940.44;5526257;26;20013;-57
2024/04/23 07:13:08;;;;;;;13.77;10.57;;;;;;;5.13;100.00;68957.28;5526550;26;20021;-57
2024/04/23 07:15:35;;;;;;;15.18;11.20;;;;;;;5.28;100.00;68972.13;5527158;26;20092;-56
2024/04/23 07:18:09;;;;;;;15.93;11.05;;;;;;;5.46;100.00;68994.47;5526972;26;20046;-56
2024/04/23 07:20:38;;;;;;;15.60;11.10;;;;;;;5.58;100.00;69008.41;5527229;26;20476;-57
2024/04/23 07:23:09;;;;;;;16.58;11.25;;;;;;;5.75;100.00;69027.59;5527269;26;20002;-55
2024/04/23 07:25:36;;;;;;;15.23;10.68;;;;;;;5.98;100.00;69058.38;5527028;26;20005;-57
2024/04/23 07:28:09;;;;;;;16.08;10.80;;;;;;;6.15;100.00;69070.38;5524874;25;20080;-56
2024/04/23 07:30:41;;;;;;;15.82;10.93;;;;;;;6.34;100.00;69091.88;5493280;26;20002;-58
2024/04/23 07:33:11;;;;;;;19.87;10.83;;;;;;;6.59;100.00;69128.16;5526594;26;20053;-57
2024/04/23 07:35:43;;;;;;;14.48;10.93;;;;;;;6.72;100.00;69131.75;5525857;26;20016;-49
2024/04/23 07:38:11;;;;;;;13.68;10.27;;;;;;;6.87;100.00;69153.81;5521231;26;20548;-53
2024/04/23 07:40:46;;;;;;;15.93;10.15;;;;;;;6.87;100.00;69162.19;5488727;26;20014;-60
2024/04/23 07:43:14;;;;;;;14.85;10.57;;;;;;;7.11;100.00;69183.75;5493100;26;20069;-61
2024/04/23 07:45:45;;;;;;;14.07;9.88;;;;;;;7.28;100.00;69200.94;5525666;25;20453;-51
2024/04/23 07:48:15;;;;;;;14.98;9.50;;;;;;;7.37;100.00;69210.84;5524659;26;20017;-52
2024/04/23 07:50:46;;;;;;;13.38;9.30;;;;;;;7.50;100.00;69228.00;5525888;26;20204;-53
2024/04/23 07:53:14;;;;;;;13.10;10.43;;;;;;;7.49;100.00;69224.22;5524324;26;20010;-56
2024/04/23 07:55:45;;;;;;;16.23;10.40;;;;;;;7.58;100.00;69231.53;5493130;26;20037;-53
2024/04/23 07:58:13;;;;;;;14.82;9.88;;;;;;;7.69;100.00;69251.53;5525227;26;20068;-56
2024/04/23 08:00:46;;;;;;;16.67;9.82;;;;;;;7.93;100.00;69276.91;5525814;26;20024;-56
2024/04/23 08:03:16;;;;;;;12.98;9.20;;;;;;;8.16;100.00;69305.13;5526004;26;20008;-55
2024/04/23 08:05:47;;;;;;;13.95;8.48;;;;;;;8.34;100.00;69322.34;5525534;26;20068;-53
2024/04/23 08:08:15;;;;;;;14.85;9.82;;;;;;;8.55;100.00;69344.22;5526105;26;20337;-55
2024/04/23 08:10:45;;;;;;;21.02;10.93;;;;;;;8.72;100.00;69362.88;5525487;26;19998;-60
2024/04/23 08:13:13;;;;;;;16.20;10.07;;;;;;;8.66;100.00;69355.88;5525895;25;20359;-50
2024/04/23 08:15:44;;;;;;;18.15;9.95;;;;;;;8.78;100.00;69372.44;5524970;26;20013;-57
2024/04/23 08:18:12;;;;;;;19.67;10.55;;;;;;;8.96;100.00;69392.88;5524876;26;19998;-57
2024/04/23 08:20:45;;;;;;;19.55;11.38;;;;;;;9.13;100.00;69412.09;5520579;26;20013;-52
2024/04/23 08:23:15;;;;;;;21.38;11.65;;;;;;;9.14;100.00;69411.22;5523064;26;19993;-56
2024/04/23 08:25:46;;;;;;;13.05;8.48;;;;;;;9.44;100.00;69442.44;5523364;26;20001;-54
2024/04/23 08:28:15;;;;;;;12.85;8.15;;;;;;;9.71;98.08;69480.00;5522042;26;20004;-54
2024/04/23 08:30:48;;;;;;;12.18;8.18;;;;;;;10.02;97.25;69507.19;5521418;26;20029;-62
2024/04/23 08:33:16;;;;;;;11.45;7.40;;;;;;;10.23;93.32;69536.31;5523870;26;20013;-58
2024/04/23 08:35:49;;;;;;;11.02;7.32;;;;;;;10.66;94.52;69582.75;5525883;25;20002;-58
2024/04/23 08:38:17;;;;;;;12.20;7.90;;;;;;;10.79;87.80;69597.91;5544256;25;20005;-58
2024/04/23 08:40:48;;;;;;;11.90;7.50;;;;;;;10.91;80.69;69608.16;5563394;25;20448;-58
2024/04/23 08:43:21;;;;;;;12.63;7.18;;;;;;;10.97;81.73;69618.34;5527468;25;19993;-57
2024/04/23 08:45:51;;;;;;;11.32;7.68;;;;;;;10.93;72.08;69618.31;5524782;26;20077;-57
2024/04/23 08:48:19;;;;;;;10.50;6.53;;;;;;;11.02;66.87;69626.22;5524295;25;20012;-58
2024/04/23 08:50:57;;;;;;;8.55;6.03;;;;;;;11.20;68.94;69646.66;5516675;26;20015;-58
2024/04/23 08:53:28;;;;;;;11.90;6.25;;;;;;;11.35;65.04;69663.00;5519720;25;20332;-58
2024/04/23 08:56:01;;;;;;;11.25;5.95;;;;;;;11.30;58.18;69660.34;5521075;26;20452;-57
2024/04/23 08:58:29;;;;;;;14.52;6.13;;;;;;;11.35;63.87;69660.97;5524097;25;20016;-56
2024/04/23 09:01:01;;;;;;;9.02;6.10;;;;;;;11.61;62.91;69690.16;5521906;26;20452;-57
2024/04/23 09:03:35;;;;;;;11.60;6.28;;;;;;;11.79;60.18;69713.81;5493364;26;20005;-58
2024/04/23 09:10:03;;;;;;;13.80;6.80;;;;;;;11.65;53.47;69698.03;5507346;25;20419;-58
2024/04/23 09:12:31;;;;;;;16.42;8.27;;;;;;;11.38;55.59;69669.13;5507074;25;19998;-58
2024/04/23 09:15:03;;;;;;;14.07;8.00;;;;;;;11.10;55.23;69635.56;5512331;25;20085;-58
2024/04/23 09:20:27;;;;;;;13.13;7.20;;;;;;;12.74;51.78;69813.50;5573061;25;1240858;-62
2024/04/23 09:23:00;;;;;;;9.70;5.95;;;;;;;13.27;56.93;69878.38;5573916;25;20005;-50
2024/04/23 09:25:37;;;;;;;11.50;5.95;;;;;;;14.93;41.67;70067.44;5541179;25;19996;-52
2024/04/23 09:28:08;;;;;;;10.63;6.05;;;;;;;14.14;43.73;69972.59;5578857;25;20452;-53
2024/04/23 09:30:44;;;;;;;13.05;6.85;;;;;;;13.77;44.55;69932.50;5546045;25;20019;-52
2024/04/23 09:33:15;;;;;;;11.90;6.53;;;;;;;13.28;46.73;69874.91;5528016;25;20704;-51
2024/04/23 09:35:47;;;;;;;12.27;6.47;;;;;;;13.11;47.92;69860.81;5491408;26;20017;-51
2024/04/23 09:38:18;;;;;;;9.50;4.95;;;;;;;12.93;47.86;69840.38;5467368;26;19999;-54
2024/04/23 09:40:46;;;;;;;8.48;4.65;;;;;;;12.74;45.74;69821.34;5467696;26;20011;-49
2024/04/23 09:43:24;;;;;;;7.50;4.55;;;;;;;12.74;44.72;69820.78;5468236;26;20009;-48
2024/04/23 09:45:56;;;;;;;7.80;4.00;;;;;;;12.66;43.81;69807.34;5444064;26;19999;-49
2024/04/23 09:48:33;;;;;;;;;;;;;;;12.88;47.07;69831.31;5449443;26;20363;-49
2024/04/23 09:52:35;;;;;;;11.70;5.97;;;;;;;12.82;45.25;69822.28;5583071;25;1310329;-49
2024/04/23 09:55:04;;;;;;;9.45;5.88;;;;;;;13.02;46.86;69850.31;5615411;25;20401;-50
2024/04/23 09:57:36;;;;;;;7.93;4.88;;;;;;;12.96;45.25;69843.88;5615980;25;20015;-52
2024/04/23 10:00:07;;;;;;;10.18;5.35;;;;;;;13.30;45.07;69879.28;5553091;25;20317;-49
2024/04/23 10:02:41;;;;;;;8.10;4.95;;;;;;;13.42;43.36;69892.75;5487906;25;20461;-52
2024/04/23 10:05:18;;;;;;;10.90;4.97;;;;;;;13.52;44.60;69905.03;5486188;25;20002;-49
2024/04/23 10:07:55;;;;;;;8.77;5.13;;;;;;;13.25;44.42;69874.00;5494048;26;20003;-49
2024/04/23 10:10:34;;;;;;;11.20;5.38;;;;;;;13.26;44.89;69879.84;5481028;26;20010;-49
2024/04/23 10:13:07;;;;;;;8.77;5.05;;;;;;;13.07;45.80;69858.19;5475875;26;20403;-46
2024/04/23 10:15:49;;;;;;;9.05;4.80;;;;;;;12.97;45.54;69844.47;5488740;26;20017;-49
2024/04/23 10:18:27;;;;;;;10.02;4.88;;;;;;;12.93;43.65;69840.38;5504501;25;20045;-49
2024/04/23 10:21:00;;;;;;;8.10;4.20;;;;;;;12.98;42.30;69843.59;5504916;26;20018;-49
2024/04/23 10:23:31;;;;;;;7.63;4.28;;;;;;;12.82;42.19;69830.13;5505315;26;20005;-51
2024/04/23 10:26:02;;;;;;;8.65;4.57;;;;;;;12.63;42.71;69809.09;5469892;26;20013;-48
2024/04/23 10:28:32;;;;;;;7.80;4.60;;;;;;;12.58;42.68;69803.22;5468270;26;20450;-51
2024/04/23 10:31:03;;;;;;;7.75;4.47;;;;;;;12.39;42.08;69781.59;5471523;26;20082;-50
2024/04/23 10:33:36;;;;;;;6.78;4.15;;;;;;;12.45;41.59;69785.44;5505154;25;19998;-48
2024/04/23 10:36:08;;;;;;;7.40;4.38;;;;;;;12.49;42.62;69790.09;5504820;25;20006;-48
2024/04/23 10:38:41;;;;;;;9.17;4.50;;;;;;;12.63;44.77;69809.09;5504774;25;19994;-50
2024/04/23 10:41:22;;;;;;;6.68;3.97;;;;;;;12.65;45.25;69813.44;5504249;25;20013;-47
2024/04/23 10:44:04;;;;;;;7.95;4.55;;;;;;;12.40;43.59;69779.59;5504785;25;20556;-49
2024/04/23 10:46:37;;;;;;;5.83;3.73;;;;;;;12.30;43.13;69763.81;5504266;25;20013;-50
2024/04/23 10:49:19;;;;;;;7.32;4.43;;;;;;;12.21;44.60;69757.97;5504485;26;20021;-48
2024/04/23 10:51:50;;;;;;;6.80;4.10;;;;;;;12.23;44.36;69760.28;5503935;26;20002;-50
2024/04/23 10:54:24;;;;;;;7.38;4.55;;;;;;;12.34;47.02;69775.78;5504465;25;20437;-50
2024/04/23 10:57:02;;;;;;;8.48;4.80;;;;;;;12.50;48.45;69796.50;5504275;25;20046;-46
2024/04/23 10:59:33;;;;;;;6.93;4.50;;;;;;;12.58;47.30;69805.28;5504511;26;20002;-47
2024/04/23 11:02:08;;;;;;;9.20;4.60;;;;;;;12.80;46.05;69828.38;5496708;25;20034;-48
2024/04/23 11:04:39;;;;;;;7.32;4.70;;;;;;;12.69;47.41;69812.88;5484283;26;20026;-49
2024/04/23 11:07:08;;;;;;;7.23;4.60;;;;;;;12.68;46.63;69812.31;5481471;26;20002;-49
2024/04/23 11:09:45;;;;;;;9.55;5.25;;;;;;;12.54;46.62;69792.75;5488183;26;19998;-50
2024/04/23 11:12:17;;;;;;;8.05;5.47;;;;;;;12.49;48.29;69787.50;5488585;26;20009;-49
2024/04/23 11:14:48;;;;;;;8.93;5.22;;;;;;;12.84;47.73;69830.44;5488401;26;19994;-49
2024/04/23 11:17:17;;;;;;;7.25;4.65;;;;;;;12.57;44.87;69791.00;5488740;26;20013;-48
2024/04/23 11:19:56;;;;;;;7.70;5.05;;;;;;;12.97;45.36;69845.03;5488305;26;20067;-50
2024/04/23 11:22:31;;;;;;;7.97;4.68;;;;;;;13.17;46.24;69865.25;5486164;26;20001;-47
2024/04/23 11:25:09;;;;;;;7.82;4.78;;;;;;;13.85;47.58;69944.50;5488152;26;19994;-50
2024/04/23 11:27:37;;;;;;;6.68;4.60;;;;;;;14.27;44.98;69989.28;5487624;26;20006;-49
2024/04/23 11:30:17;;;;;;;7.32;4.47;;;;;;;14.42;42.87;70008.88;5485868;26;20029;-48
2024/04/23 11:32:45;;;;;;;7.00;4.38;;;;;;;14.80;40.88;70052.78;5488502;26;20341;-47
2024/04/23 11:35:17;;;;;;;6.78;4.38;;;;;;;14.97;40.40;70069.50;5486014;26;20006;-46
2024/04/23 11:37:44;;;;;;;6.32;4.50;;;;;;;15.30;39.67;70103.75;5487764;26;20046;-49
2024/04/23 11:40:23;;;;;;;7.22;4.43;;;;;;;15.68;39.40;70150.31;5487478;26;20280;-47
2024/04/23 11:42:51;;;;;;;7.28;4.18;;;;;;;15.51;37.58;70133.03;5487962;26;20010;-48
2024/04/23 11:45:22;;;;;;;10.18;4.75;;;;;;;15.72;37.55;70155.00;5487798;26;20425;-46
2024/04/23 11:47:56;;;;;;;6.82;4.43;;;;;;;15.82;37.18;70168.19;5487784;26;20006;-45
2024/04/23 11:50:28;;;;;;;6.82;4.30;;;;;;;16.25;38.27;70220.03;5487589;26;20009;-47
2024/04/23 11:52:57;;;;;;;8.02;4.47;;;;;;;15.87;38.04;70171.44;5487667;26;20002;-46
2024/04/23 11:55:31;;;;;;;7.40;4.82;;;;;;;15.65;38.72;70149.44;5486734;26;20431;-46
2024/04/23 11:57:59;;;;;;;8.25;4.82;;;;;;;15.23;37.70;70098.19;5487747;26;20479;-48
2024/04/23 12:00:30;;;;;;;8.77;5.22;;;;;;;15.34;37.85;70111.06;5487175;26;20036;-47